Aérodrome :
LOGIN :

S'inscrire | Disclaimer

   EN    FR    IT 

 










Légende :    VFR   VFR Marginal   IFR   IFR Intensif   IFR Très Intensif
Visi : 
Plafond : 
>= 8 km
>= 3000ft
5 à 8 km
1000 à 3000 ft
1500m à 5 km
500 à 1000 ft
800 à 1500m
200 à 500 ft
< 800m
< 200 ft
Symboles :   Orages  Brouillard  Fortes neiges  Fortes précipitations  Vent > 20 kt
SIGMETs :   Divers  Orages  Givrage  Turbulence  Onde Orograph.  Cendres Volcan.







- Altitude de l'aérodrome : 1234 ft
- Code IATA : LUX


ELLX - Luxembourg Findel

DERNIER METAR :
  • 221420Z 14007KT 4000 BR SCT007 BKN009 M04/M05 Q1004 BECMG BKN010

METARs EXPIRÉS :
  • 221350Z 16007KT 4000 BR SCT006 BKN008 M04/M05 Q1005 BECMG 5000 BR BKN010
  • 221320Z 17009KT 130V200 4000 BR SCT006 BKN008 M04/M05 Q1005 BECMG 5000 BR BKN008
  • 221250Z 18009KT 150V210 3500 BR BKN005 BKN006 M05/M05 Q1006 BECMG 5000 BR BKN008
  • 221220Z 19008KT 150V220 3000 BR OVC005 M05/M05 Q1007 NOSIG
  • 221150Z 17010KT 140V200 2500 BR OVC004 M05/M06 Q1007 BECMG 3500 BR

TAF TAF ELLX
Valide du 22 à 12h jusqu'au 23 à 18h UTC


221100Z 2212/2318 17008KT 6000 BKN010
TEMPO 2212/2215 2000 BR BKN002
BECMG 2216/2218 3000 -SN BKN008
PROB40
TEMPO 2219/2222 1000 SN BKN002
BECMG 2301/2303 0500 FZFG -SG BKN001
PROB30
TEMPO 2306/2309 1000 SN BKN004
BECMG 2310/2312 04005KT NSW BKN012
ATIS : +352 4798 27300
Météo : +352 4798 27010 / 27050
Pas de NOTAMs connus pour ce terrain.



MET'MAP, la Météo Aéronautique d'un coup d'oeil ! - Copyright ORBIFLY Décembre 2007 - Disclaimer

ORBIFLY MET'MAP TEAM :

Programmation & Développement : Alexandra Zaïnal
Conception & Développement : Baudouin d'Aumeries
Co-Programmation & Développement : Marc-Olivier Méhu
Soutien technique & logistique : Manuel Goepfert

Contact : metmap@orbifly.com




SOURCES & CREDITS :

   NOAA